Timeline UpdatesTrip UpdatesNews PostsPvt PostsTravel TipsAdmin PostsConv PostsFollowed PostsChat RequestsBlog PostsPNR Posts

Disclaimer
Search
 
 
Sat Aug 30, 2014 09:41:19 ISTHomeTrainsΣChainsAtlasPNRForumGalleryNewsFAQTripsMembersLoginFeedback
No Recent News for this Train
Other Trains in the News **new
Latest...
⇐ Return Journey: Train# 59207

59208/Okha - Bhavnagar Passenger

Feb 22 2014 (11:46PM)
Change Departure Station:
Change Arrival Station:
Post a Train Travel TipPost a Train Travel Tip **new
Post a Comment/Question/Picture/VideoPost a Comment/Question/Picture/Video
Pantry/Catering
✕ NO Pantry Car
✕ NO Catering
RSA - Rake Sharing
59267/59268 Bhavnagar-Palitana Passenger
Rake/Coach Composition
Eng.. GEN..GEN..GEN..S2..S1..GEN..GEN..GEN..SLR
Loco
RTM WDM 3A.
News    PNR    Forum    Time-Table    Availability    Fare Chart    Map    Arr/Dep History    Trips    Gallery    ΣChains    X/O    Timeline    
Travel Time: 6h 50m    28 halts    Distance: 281 km    Avg Speed: 41 km/hr
Type: Passenger
Zone: WR/Western
Departs @ 14:45 (Avg 1m late)
Platform# 1
SMTWTFS
Okha/OKHA 
Arrives @ 21:35 (Avg 25m late)
Platform# ???
SMTWTFS
Sindhawadar/SDD 

28 halts. 31 intermediate Stations between Okha and Sindhawadar

Show ALL intermediate Stations  Show Old Time-Table

#CodeStation NameX/OArrivesAvgDepartsAvgHaltPFDay#KmSpeedElevZoneAddress
1OKHA»Okha (3)»  -14:45+1110.0635mWROkha, Gujarat
2MTHPMithapur  14:54-14:55-1m--19.5253mWRJamnagar, Gujarat
3BMRNBhimranaX  15:02+215:03+121m--112.4356mWRBhimrana, Gujarat
4VVAVarvala  15:22-15:23-1m--123.66014mWRJamnagar, Gujarat
5DWKDwarka (2)X  15:28+1115:30+152m2128.61614mWRDwarka, Gujarat
6GRJAGorinja  15:45+1715:46+171m--132.5605mWRKhambhalia-Dwarka (SH 6), Gujarat
7OKDOkha MadhiX  16:04+1216:05+141m--150.5285mWRNH 8E, Gujarat
8KRGAKuranga  16:23-16:24-1m--158.87012mWRJamnagar, Gujarat
9BHTABhatiya  16:34+416:35+91m--170.44634mWRNational Highway 8E, Gujarat
10BPKABhopalka  16:48+916:49+101m--180.47146mWRJamnagar, Gujarat
11BHTLBhatel  17:01+1617:02+161m--194.65935mWRJamnagar, Gujarat
12VQDViramdad  17:13-17:14-1m--1105.34949mWRKhambhalia-Dwarka (SH 6), Gujarat
13KMBLKhambhalia  17:23+1317:25+152m11112.75849mWRKhambhalia, Gujarat
14SYQSinhanX  17:33-17:34-1m--1120.55650mWRSH 6, Gujarat
15MDPRModpur  17:44+1917:45+201m--1129.85447mWRKhambhalia-Lalpur, Gujarat
16KNLSKanalus JunctionX  17:57+2017:58+251m--1140.63936mWRJamnagar, Gujarat
17PPLIPipli  18:06+2318:07+251m--1145.75230mWRJamnagar, Gujarat
18LKBLLakhabawal  18:18+2418:19+241m--1155.25521mWRJamnagar, Gujarat
19JAMJamnagar (2)  18:32+1418:37+145m11167.04314mWRJamnagar, Gujarat
20HAPAHapa (3)  18:49+2118:54+245m31175.75416mWRJamnagar, Gujarat
21ALBAlia Bada  19:05+2819:06+291m--1185.65927mWRJamnagar, Gujarat
22WTJJam Wanthali  19:18+2819:19+281m--1197.33852mWRRanuja Village Rd, Gujarat
23JALDJaliya DevaniX  19:31+2619:33+262m--1204.93450mWRRanuja Village Rd, Gujarat
24HMHadmatiya Junction  19:47+2119:48+241m--1212.84870mWRHadmatiya Junction Railway Station, Gujarat
25CXChanolX  19:57+2419:59+272m--1219.93289mWRState Highway 25, Gujarat
26PDHPadadhari  20:12+2320:13+241m--1226.86071mWRPaddhari, Gujarat
27KHDIKhanderi  20:27+2420:28+241m--1240.830111mWRRajkot, Gujarat
28RJTRajkot Junction (5)X  20:50+1221:00+1510m11251.634128mWRRajkot, Gujarat
29KHCKhorana  21:19+2421:20+241m--1262.374131mWRState Highway 113, Gujarat
30SDD•Sindhawadar•X  21:35+2521:36+271m--1280.838105mWRSindhavadar, Gujarat
31WKRCWankaner City  21:52-21:53-1m--1291.01380mWRWankaner, Gujarat
32WKRWankaner Junction (4)  22:02+2322:04+342m--1292.93287mWRWankaner, Gujarat
33DLDaladi  22:27+3022:28+301m--1305.342115mWRDaladi, Gujarat
34THANThan Junction (3)  22:48+2522:50+292m11319.548138mWRThangadh, Gujarat
35VDVagdiyaX  23:03+2823:04+331m--1329.848149mWRState Highway 113, Gujarat
36RARamparda  23:12+3323:13+421m--1336.361141mWRSurendranagar, Gujarat
37MOLMuli RoadX  23:22+4323:24+472m11345.537108mWRSurendranagar, Gujarat
38DXRDigsar  23:37+4223:38+481m--1353.521100mWRState Highway 17, Gujarat
39CJRChamaraj  23:57-00:29-32m--1360.1986mWRState Highway 17, Gujarat
40SUNRSurendranagar Junction (4)  01:15+201:55+040m32367.22272mWRSurendra Nagar, Gujarat
41SRGTSurendranagar Gate (1)X  02:01-02:02-1m12369.44271mWRSurendranagar, Gujarat
42JVNJorawarnagar Junction (1)  02:06-02:07-1m12372.13669mWRSurendra Nagar, Gujarat
43WCWadhwan City  02:13+1502:14+181m--2375.77667mWRSurendranagar, Gujarat
44LMLimbdi (1)  02:30+2002:31+211m12396.06051mWRLimbdi, Gujarat
45CDAChuda  02:41+2102:42+221m--2406.07063mWRState Highway 38, Gujarat
46RURRanpur  02:56+2202:57+241m--2422.36561mWRRanpur, Gujarat
47KDIKundli  03:07+2403:08+301m--2433.15786mWRState Highway 38, Gujarat
48BTDBotad Junction (5)  03:20+3203:22+342m--2444.56696mWRBotad, Gujarat
49LTDLathidad  03:32+3603:33+371m--2455.55668mWRTajpar Rd, Gujarat
50NGANingala Junction  03:41+3803:42+381m--2463.16457mWRState Highway 117, Gujarat
51ALMRAlampur  03:49+3803:50+411m--2470.65059mWRState Highway 31, Gujarat
52UJUjalvav  03:58+4203:59+421m--2477.35164mWRState Highway 31, Gujarat
53DLJDhola Junction  04:11+4004:12+401m--2487.48337mWRDhola, Gujarat
54SOASanosra  04:20+3804:21+391m--2498.55136mWRState Highway 25, Gujarat
55BJUDBajud  04:26-04:27-1m--2502.76137mWRState Highway 31, Gujarat
56SGDSongadh (1)  04:33+3804:34+381m12508.93040mWRBhavnagar, Gujarat
57SOJNSihor Gujarat  04:49+3204:50+321m--2516.34542mWRShihor, Gujarat
58KDMRKodiyar Mandir  04:57+3104:58+311m12521.62292mWRSH 21, Gujarat
59VTJVartej  05:12+2505:13+251m--2526.82924mWRBhavnagar, Gujarat
60BVPBhavnagar Para  05:28+2005:29+201m--2534.0813mWRBhavnagar, Gujarat
61BVCBhavnagar Terminus (2)  05:50+5-12536.8-11mWRBhavnagar, Gujarat
Scroll to Top
Scroll to Bottom